Time;durP1;ratioP1;P1;durP2;ratioP2;P2;SDS_P1;SDS_P2;PMS_P1;PMS_P2;Temp;Humidity;BMP_temperature;BMP_pressure;BME280_temperature;BME280_humidity;BME280_pressure;Samples;Min_cycle;Max_cycle;Signal;HPM_P1;HPM_P2
2022/10/24 00:00:06;;;;;;;;;;;21.70;99.90;21.90;99255.00;;;;338526;28;89716;-96
2022/10/24 00:00:18;;;;;;;;;;;21.70;99.90;21.90;99256.00;;;;339044;28;82549;-96
2022/10/24 00:00:31;;;;;;;;;;;21.80;99.90;21.80;99247.00;;;;333495;29;89673;-96
2022/10/24 00:00:45;;;;;;;;;;;21.70;99.90;21.80;99248.00;;;;337022;28;82543;-96
2022/10/24 00:00:58;;;;;;;;;;;21.70;99.90;21.70;99250.00;;;;336511;29;87341;-96
2022/10/24 00:01:19;;;;;;;;;;;21.80;99.90;21.70;99253.00;;;;336008;29;82040;-96
2022/10/24 00:01:31;;;;;;;;;;;21.70;99.90;21.80;99257.00;;;;338287;28;89121;-96
2022/10/24 00:01:42;;;;;;;;;;;21.70;99.90;21.70;99244.00;;;;338387;28;82526;-96
2022/10/24 00:01:55;;;;;;;;;;;21.70;99.90;21.80;99251.00;;;;336025;29;86650;-96
2022/10/24 00:02:08;;;;;;;;;;;21.70;99.90;21.70;99257.00;;;;338235;28;82544;-96
2022/10/24 00:02:20;;;;;;;;;;;21.70;99.90;21.70;99250.00;;;;333642;29;89684;-96
2022/10/24 00:02:33;;;;;;;;;;;21.70;99.90;21.70;99249.00;;;;336713;29;82423;-96
2022/10/24 00:02:45;;;;;;;;;;;21.70;99.90;21.70;99262.00;;;;336179;28;88427;-96
2022/10/24 00:02:59;;;;;;;;;;;21.70;99.90;21.70;99251.00;;;;336648;29;82439;-96
2022/10/24 00:03:12;;;;;;;;;;;21.60;99.90;21.70;99249.00;;;;335228;29;90413;-96
2022/10/24 00:03:24;;;;;;;;;;;21.60;99.90;21.70;99247.00;;;;337520;28;82509;-96
2022/10/24 00:03:36;;;;;;;;;;;21.70;99.90;21.70;99260.00;;;;335828;29;90941;-96
2022/10/24 00:03:48;;;;;;;;;;;21.60;99.90;21.70;99260.00;;;;337543;28;82557;-96
2022/10/24 00:04:02;;;;;;;;;;;21.60;99.90;21.70;99260.00;;;;334978;29;88490;-96
2022/10/24 00:04:17;;;;;;;;;;;21.70;99.90;21.70;99264.00;;;;336664;28;82499;-96
2022/10/24 00:04:29;;;;;;;;;;;21.60;99.90;21.60;99250.00;;;;339446;28;88525;-95
2022/10/24 00:04:41;;;;;;;;;;;21.60;99.90;21.60;99258.00;;;;337006;29;82449;-96
2022/10/24 00:04:54;;;;;;;;;;;21.60;99.90;21.70;99265.00;;;;334767;29;87433;-96
2022/10/24 00:05:06;;;;;;;;;;;21.60;99.90;21.60;99267.00;;;;336554;28;82520;-96
2022/10/24 00:05:19;;;;;;;;;;;21.60;99.90;21.70;99259.00;;;;336089;29;90318;-96
2022/10/24 00:05:32;;;;;;;;;;;21.60;99.90;21.70;99262.00;;;;335487;29;82291;-96
2022/10/24 00:05:46;;;;;;;;;;;21.60;99.90;21.70;99257.00;;;;336105;29;90869;-96
2022/10/24 00:05:58;;;;;;;;;;;21.60;99.90;21.70;99252.00;;;;335544;29;82536;-96
2022/10/24 00:06:10;;;;;;;;;;;21.60;99.90;21.70;99265.00;;;;336023;29;89545;-96
2022/10/24 00:06:51;;;;;;;;;;;21.60;99.90;21.60;99250.00;;;;345728;23;87446;-96
2022/10/24 00:07:03;;;;;;;;;;;21.60;99.90;21.60;99256.00;;;;338698;28;82519;-96
2022/10/24 00:07:15;;;;;;;;;;;21.60;99.90;21.60;99256.00;;;;337694;28;88485;-96
2022/10/24 00:07:27;;;;;;;;;;;21.60;99.90;21.60;99260.00;;;;336525;28;82566;-96
2022/10/24 00:07:40;;;;;;;;;;;21.60;99.90;21.60;99264.00;;;;333937;29;90143;-96
2022/10/24 00:07:58;;;;;;;;;;;21.60;99.90;21.60;99260.00;;;;336797;29;82507;-96
2022/10/24 00:08:10;;;;;;;;;;;21.50;99.90;21.50;99261.00;;;;337773;28;91775;-96
2022/10/24 00:08:23;;;;;;;;;;;21.50;99.90;21.50;99259.00;;;;338539;28;82425;-96
2022/10/24 00:08:36;;;;;;;;;;;21.50;99.90;21.50;99258.00;;;;335269;29;88572;-96
2022/10/24 00:08:49;;;;;;;;;;;21.50;99.90;21.60;99254.00;;;;336511;28;82525;-96
2022/10/24 00:09:02;;;;;;;;;;;21.50;99.90;21.60;99268.00;;;;337508;28;89931;-96
2022/10/24 00:09:14;;;;;;;;;;;21.50;99.90;21.60;99264.00;;;;334724;29;82512;-96
2022/10/24 00:09:27;;;;;;;;;;;21.50;99.90;21.60;99264.00;;;;334563;29;87390;-96
2022/10/24 00:09:39;;;;;;;;;;;21.50;99.90;21.60;99260.00;;;;335247;29;82436;-96
2022/10/24 00:09:51;;;;;;;;;;;21.50;99.90;21.60;99262.00;;;;337962;28;88549;-96
2022/10/24 00:10:05;;;;;;;;;;;21.50;99.90;21.50;99261.00;;;;338445;28;82618;-96
2022/10/24 00:10:19;;;;;;;;;;;21.50;99.90;21.50;99255.00;;;;337903;28;89480;-96
2022/10/24 00:10:33;;;;;;;;;;;21.50;99.90;21.50;99249.00;;;;337979;28;82546;-96
2022/10/24 00:10:46;;;;;;;;;;;21.50;99.90;21.50;99252.00;;;;336597;28;89250;-96
2022/10/24 00:10:58;;;;;;;;;;;21.50;99.90;21.50;99249.00;;;;335836;29;82494;-96
2022/10/24 00:11:39;;;;;;;;;;;21.50;99.90;21.50;99252.00;;;;335141;29;88733;-96
2022/10/24 00:11:54;;;;;;;;;;;21.50;99.90;21.50;99261.00;;;;336580;28;82535;-96
2022/10/24 00:12:06;;;;;;;;;;;21.50;99.90;21.50;99260.00;;;;336289;29;89340;-96
2022/10/24 00:12:20;;;;;;;;;;;21.50;99.90;21.50;99250.00;;;;338458;28;82279;-96
2022/10/24 00:12:37;;;;;;;;;;;21.40;99.90;21.50;99252.00;;;;334892;29;87173;-96
2022/10/24 00:12:50;;;;;;;;;;;21.40;99.90;21.50;99261.00;;;;335401;29;82350;-96
2022/10/24 00:13:04;;;;;;;;;;;21.50;99.90;21.50;99264.00;;;;338807;28;91598;-96
2022/10/24 00:13:16;;;;;;;;;;;21.40;99.90;21.50;99265.00;;;;336710;28;82471;-96
2022/10/24 00:13:28;;;;;;;;;;;21.40;99.90;21.50;99261.00;;;;334722;29;88541;-96
2022/10/24 00:13:43;;;;;;;;;;;21.40;99.90;21.40;99262.00;;;;338246;28;82461;-96
2022/10/24 00:13:55;;;;;;;;;;;21.40;99.90;21.40;99254.00;;;;337989;28;89826;-96
2022/10/24 00:14:08;;;;;;;;;;;21.40;99.90;21.50;99263.00;;;;338174;28;82314;-96
2022/10/24 00:14:21;;;;;;;;;;;21.40;99.90;21.40;99268.00;;;;337843;28;87615;-96
2022/10/24 00:14:34;;;;;;;;;;;21.40;99.90;21.50;99259.00;;;;337765;28;82381;-96
2022/10/24 00:14:46;;;;;;;;;;;21.40;99.90;21.50;99262.00;;;;336210;28;89594;-96
2022/10/24 00:14:58;;;;;;;;;;;21.40;99.90;21.50;99268.00;;;;337208;29;82566;-96
2022/10/24 00:15:11;;;;;;;;;;;21.40;99.90;21.50;99266.00;;;;333719;29;89498;-96
2022/10/24 00:15:24;;;;;;;;;;;21.40;99.90;21.40;99271.00;;;;335596;29;82539;-96
2022/10/24 00:15:36;;;;;;;;;;;21.40;99.90;21.40;99268.00;;;;337816;28;88517;-96
2022/10/24 00:15:49;;;;;;;;;;;21.40;99.90;21.40;99268.00;;;;336543;28;83401;-96
2022/10/24 00:16:01;;;;;;;;;;;21.40;99.90;21.30;99271.00;;;;335362;29;89644;-96
2022/10/24 00:16:13;;;;;;;;;;;21.40;99.90;21.30;99273.00;;;;337234;29;82291;-96
2022/10/24 00:16:31;;;;;;;;;;;21.40;99.90;21.30;99281.00;;;;337755;28;90228;-96
2022/10/24 00:16:46;;;;;;;;;;;21.40;99.90;21.40;99272.00;;;;337123;28;82515;-96
2022/10/24 00:16:58;;;;;;;;;;;21.30;99.90;21.40;99271.00;;;;337870;28;88842;-96
2022/10/24 00:17:10;;;;;;;;;;;21.40;99.90;21.40;99271.00;;;;336970;29;82433;-95
2022/10/24 00:17:23;;;;;;;;;;;21.30;99.90;21.40;99272.00;;;;337499;28;91949;-96
2022/10/24 00:17:37;;;;;;;;;;;21.30;99.90;21.30;99272.00;;;;337109;29;82456;-96
2022/10/24 00:17:52;;;;;;;;;;;21.30;99.90;21.30;99280.00;;;;339069;28;87430;-95
2022/10/24 00:18:05;;;;;;;;;;;21.30;99.90;21.40;99273.00;;;;337351;28;82523;-96
2022/10/24 00:18:17;;;;;;;;;;;21.30;99.90;21.30;99273.00;;;;337927;28;89807;-96
2022/10/24 00:18:32;;;;;;;;;;;21.30;99.90;21.40;99264.00;;;;335507;29;82556;-96
2022/10/24 00:18:47;;;;;;;;;;;21.30;99.90;21.40;99272.00;;;;335323;29;87449;-96
2022/10/24 00:18:59;;;;;;;;;;;21.30;99.90;21.40;99281.00;;;;334211;29;82317;-96
2022/10/24 00:19:12;;;;;;;;;;;21.30;99.90;21.40;99273.00;;;;333875;29;90973;-96
2022/10/24 00:19:24;;;;;;;;;;;21.30;99.90;21.40;99275.00;;;;334092;28;82576;-96
2022/10/24 00:19:36;;;;;;;;;;;21.30;99.90;21.50;99274.00;;;;336628;28;88198;-96
2022/10/24 00:19:48;;;;;;;;;;;21.30;99.90;21.40;99275.00;;;;334793;29;82305;-96
2022/10/24 00:20:00;;;;;;;;;;;21.30;99.90;21.40;99275.00;;;;335337;29;88427;-96
2022/10/24 00:20:14;;;;;;;;;;;21.30;99.90;21.40;99278.00;;;;338496;28;82304;-96
2022/10/24 00:20:32;;;;;;;;;;;21.30;99.90;21.40;99283.00;;;;334358;29;87447;-96
2022/10/24 00:20:45;;;;;;;;;;;21.30;99.90;21.40;99285.00;;;;336952;28;82588;-96
2022/10/24 00:20:57;;;;;;;;;;;21.30;99.90;21.40;99283.00;;;;336235;29;89698;-96
2022/10/24 00:21:10;;;;;;;;;;;21.30;99.90;21.40;99286.00;;;;337072;28;82522;-96
2022/10/24 00:21:22;;;;;;;;;;;21.30;99.90;21.40;99276.00;;;;333927;29;89338;-96
2022/10/24 00:21:35;;;;;;;;;;;21.30;99.90;21.40;99277.00;;;;335816;29;82460;-96
2022/10/24 00:21:47;;;;;;;;;;;21.30;99.90;21.50;99275.00;;;;335347;29;91818;-94
2022/10/24 00:21:59;;;;;;;;;;;21.30;99.90;21.50;99270.00;;;;335718;28;82590;-96
2022/10/24 00:22:12;;;;;;;;;;;21.30;99.90;21.40;99276.00;;;;339356;28;89441;-95
2022/10/24 00:22:24;;;;;;;;;;;21.30;99.90;21.30;99271.00;;;;339486;28;82464;-96
2022/10/24 00:22:36;;;;;;;;;;;21.30;99.90;21.30;99276.00;;;;333078;29;87488;-96
2022/10/24 00:22:49;;;;;;;;;;;21.30;99.90;21.40;99272.00;;;;337994;28;82312;-96
2022/10/24 00:23:02;;;;;;;;;;;21.30;99.90;21.30;99274.00;;;;337812;28;89766;-96
2022/10/24 00:23:14;;;;;;;;;;;21.30;99.90;21.30;99273.00;;;;335762;29;82568;-96
2022/10/24 00:23:28;;;;;;;;;;;21.30;99.90;21.30;99272.00;;;;335341;29;89665;-96
2022/10/24 00:23:43;;;;;;;;;;;21.20;99.90;21.30;99268.00;;;;335752;29;82421;-93
2022/10/24 00:23:56;;;;;;;;;;;21.30;99.90;21.30;99274.00;;;;336602;29;88357;-96
2022/10/24 00:24:08;;;;;;;;;;;21.30;99.90;21.40;99279.00;;;;336485;28;82554;-96
2022/10/24 00:24:21;;;;;;;;;;;21.30;99.90;21.40;99280.00;;;;336640;29;88373;-96
2022/10/24 00:24:33;;;;;;;;;;;21.30;99.90;21.40;99284.00;;;;337926;28;82458;-96
2022/10/24 00:24:46;;;;;;;;;;;21.30;99.90;21.40;99280.00;;;;334304;29;86950;-96
2022/10/24 00:24:59;;;;;;;;;;;21.30;99.90;21.30;99278.00;;;;333049;29;82331;-96
2022/10/24 00:25:12;;;;;;;;;;;21.20;99.90;21.30;99279.00;;;;334023;29;89893;-93
2022/10/24 00:25:26;;;;;;;;;;;21.20;99.90;21.30;99270.00;;;;333882;29;82627;-96
2022/10/24 00:25:38;;;;;;;;;;;21.20;99.90;21.30;99260.00;;;;336124;28;88341;-96
2022/10/24 00:25:51;;;;;;;;;;;21.20;99.90;21.20;99272.00;;;;336799;28;82587;-96
2022/10/24 00:26:05;;;;;;;;;;;21.20;99.90;21.30;99266.00;;;;333565;28;88485;-96
2022/10/24 00:26:17;;;;;;;;;;;21.20;99.90;21.30;99267.00;;;;334924;29;82407;-96
2022/10/24 00:26:30;;;;;;;;;;;21.20;99.90;21.30;99269.00;;;;333040;29;88995;-96
2022/10/24 00:26:42;;;;;;;;;;;21.20;99.90;21.30;99259.00;;;;333736;28;82476;-96
2022/10/24 00:26:55;;;;;;;;;;;21.20;99.90;21.40;99268.00;;;;335899;29;87393;-96
2022/10/24 00:27:10;;;;;;;;;;;21.20;99.90;21.30;99268.00;;;;335459;29;82557;-96
2022/10/24 00:27:22;;;;;;;;;;;21.20;99.90;21.20;99270.00;;;;337192;28;90476;-96
2022/10/24 00:27:35;;;;;;;;;;;21.20;99.90;21.20;99262.00;;;;336862;29;82142;-96
2022/10/24 00:27:47;;;;;;;;;;;21.20;99.90;21.30;99266.00;;;;337382;28;87937;-95
2022/10/24 00:28:00;;;;;;;;;;;21.20;99.90;21.20;99262.00;;;;336378;28;82618;-96
2022/10/24 00:28:13;;;;;;;;;;;21.20;99.90;21.30;99268.00;;;;336128;29;90822;-96
2022/10/24 00:28:25;;;;;;;;;;;21.20;99.90;21.20;99265.00;;;;336725;28;82577;-96
2022/10/24 00:28:38;;;;;;;;;;;21.20;99.90;21.30;99265.00;;;;335485;29;87496;-96
2022/10/24 00:28:51;;;;;;;;;;;21.20;99.90;21.30;99262.00;;;;335090;29;82153;-96
2022/10/24 00:29:03;;;;;;;;;;;21.20;99.90;21.30;99270.00;;;;338494;28;87296;-96
2022/10/24 00:29:15;;;;;;;;;;;21.20;99.90;21.30;99260.00;;;;339076;28;82532;-96
2022/10/24 00:29:28;;;;;;;;;;;21.20;99.90;21.30;99263.00;;;;335007;29;87423;-96
2022/10/24 00:29:40;;;;;;;;;;;21.20;99.90;21.30;99262.00;;;;336593;28;83667;-96
2022/10/24 00:29:52;;;;;;;;;;;21.20;99.90;21.30;99256.00;;;;338121;28;90374;-96
2022/10/24 00:30:06;;;;;;;;;;;21.20;99.90;21.40;99265.00;;;;337261;28;82476;-96
2022/10/24 00:30:19;;;;;;;;;;;21.20;99.90;21.30;99256.00;;;;336781;28;91716;-95
2022/10/24 00:30:31;;;;;;;;;;;21.20;99.90;21.20;99257.00;;;;338499;28;82482;-92
2022/10/24 00:30:43;;;;;;;;;;;21.20;99.90;21.30;99260.00;;;;336730;28;88733;-96
2022/10/24 00:30:56;;;;;;;;;;;21.20;99.90;21.30;99267.00;;;;336092;28;82524;-94
2022/10/24 00:31:12;;;;;;;;;;;21.20;99.90;21.40;99258.00;;;;336770;28;89638;-94
2022/10/24 00:31:24;;;;;;;;;;;21.20;99.90;21.40;99258.00;;;;336249;28;82544;-95
2022/10/24 00:31:36;;;;;;;;;;;21.20;99.90;21.30;99265.00;;;;338063;28;86338;-96
2022/10/24 00:31:48;;;;;;;;;;;21.20;99.90;21.40;99267.00;;;;338379;28;82553;-94
2022/10/24 00:32:01;;;;;;;;;;;21.20;99.90;21.40;99264.00;;;;335330;29;88886;-93
2022/10/24 00:32:14;;;;;;;;;;;21.20;99.90;21.30;99263.00;;;;337249;28;82593;-96
2022/10/24 00:32:27;;;;;;;;;;;21.20;99.90;21.30;99267.00;;;;337885;28;89591;-95
2022/10/24 00:32:40;;;;;;;;;;;21.20;99.90;21.30;99281.00;;;;337033;29;82561;-96
2022/10/24 00:32:52;;;;;;;;;;;21.20;99.90;21.20;99272.00;;;;335514;28;87469;-94
2022/10/24 00:33:04;;;;;;;;;;;21.20;99.90;21.20;99266.00;;;;337298;29;82456;-92
2022/10/24 00:33:16;;;;;;;;;;;21.20;99.90;21.20;99269.00;;;;338116;28;90170;-95
2022/10/24 00:33:30;;;;;;;;;;;21.20;99.90;21.20;99271.00;;;;338376;28;82471;-92
2022/10/24 00:33:43;;;;;;;;;;;21.20;99.90;21.20;99260.00;;;;336781;28;88512;-92
2022/10/24 00:34:13;;;;;;;;;;;21.20;99.90;21.20;99257.00;;;;337670;28;86703;-96
2022/10/24 00:34:25;;;;;;;;;;;21.20;99.90;21.20;99265.00;;;;339412;28;82523;-96
2022/10/24 00:34:38;;;;;;;;;;;21.20;99.90;21.30;99269.00;;;;338414;28;91463;-96
2022/10/24 00:34:51;;;;;;;;;;;21.10;99.90;21.30;99260.00;;;;338915;28;82394;-96
2022/10/24 00:35:03;;;;;;;;;;;21.20;99.90;21.20;99268.00;;;;336691;28;87562;-96
2022/10/24 00:35:15;;;;;;;;;;;21.20;99.90;21.20;99267.00;;;;336225;29;82406;-96
2022/10/24 00:35:28;;;;;;;;;;;21.20;99.90;21.20;99268.00;;;;338220;28;88874;-96
2022/10/24 00:35:40;;;;;;;;;;;21.10;99.90;21.20;99272.00;;;;339529;28;82686;-96
2022/10/24 00:35:53;;;;;;;;;;;21.10;99.90;21.20;99274.00;;;;338825;28;89376;-96
2022/10/24 00:36:11;;;;;;;;;;;21.10;99.90;21.20;99276.00;;;;339454;28;82245;-96
2022/10/24 00:36:25;;;;;;;;;;;21.10;99.90;21.30;99268.00;;;;338500;28;89268;-96
2022/10/24 00:36:37;;;;;;;;;;;21.10;99.90;21.30;99265.00;;;;338317;28;83194;-96
2022/10/24 00:36:49;;;;;;;;;;;21.10;99.90;21.30;99265.00;;;;340588;28;90643;-96
2022/10/24 00:37:00;;;;;;;;;;;21.10;99.90;21.30;99265.00;;;;342072;28;82556;-96
2022/10/24 00:37:13;;;;;;;;;;;21.20;99.90;21.20;99256.00;;;;340301;28;90321;-96
2022/10/24 00:37:25;;;;;;;;;;;21.10;99.90;21.20;99261.00;;;;339623;28;82364;-96
2022/10/24 00:37:37;;;;;;;;;;;21.10;99.90;21.20;99262.00;;;;336665;28;88036;-96
2022/10/24 00:37:49;;;;;;;;;;;21.10;99.90;21.30;99261.00;;;;339871;28;82359;-96
2022/10/24 00:38:01;;;;;;;;;;;21.10;99.90;21.30;99260.00;;;;340389;28;90013;-96
2022/10/24 00:38:14;;;;;;;;;;;21.10;99.90;21.30;99262.00;;;;338712;28;82486;-96
2022/10/24 00:38:25;;;;;;;;;;;21.10;99.90;21.30;99265.00;;;;339568;28;88184;-96
2022/10/24 00:38:37;;;;;;;;;;;21.10;99.90;21.30;99259.00;;;;339680;28;83479;-96
2022/10/24 00:38:50;;;;;;;;;;;21.10;99.90;21.30;99262.00;;;;338945;28;89950;-96
2022/10/24 00:39:03;;;;;;;;;;;21.10;99.90;21.30;99254.00;;;;339627;28;82519;-96
2022/10/24 00:39:15;;;;;;;;;;;21.20;99.90;21.20;99257.00;;;;337256;28;89965;-96
2022/10/24 00:39:27;;;;;;;;;;;21.10;99.90;21.30;99252.00;;;;340904;28;82591;-96
2022/10/24 00:39:40;;;;;;;;;;;21.20;99.90;21.30;99269.00;;;;341246;28;90843;-96
2022/10/24 00:39:51;;;;;;;;;;;21.20;99.90;21.30;99271.00;;;;339959;28;82709;-96
2022/10/24 00:40:06;;;;;;;;;;;21.20;99.90;21.20;99278.00;;;;337691;28;90381;-97
2022/10/24 00:40:18;;;;;;;;;;;21.20;99.90;21.30;99263.00;;;;338805;28;82422;-96
2022/10/24 00:40:32;;;;;;;;;;;21.20;99.90;21.20;99271.00;;;;337536;28;90015;-96
2022/10/24 00:40:47;;;;;;;;;;;21.10;99.90;21.20;99262.00;;;;340899;28;82559;-95
2022/10/24 00:41:00;;;;;;;;;;;21.10;99.90;21.20;99268.00;;;;342353;28;90690;-96
2022/10/24 00:41:16;;;;;;;;;;;21.10;99.90;21.20;99263.00;;;;342436;28;82518;-96
2022/10/24 00:41:36;;;;;;;;;;;21.10;99.90;21.20;99261.00;;;;340705;28;86984;-96
2022/10/24 00:41:52;;;;;;;;;;;21.10;99.90;21.20;99267.00;;;;340165;28;82428;-96
2022/10/24 00:42:09;;;;;;;;;;;21.10;99.90;21.20;99262.00;;;;339956;28;89200;-96
2022/10/24 00:42:21;;;;;;;;;;;21.10;99.90;21.20;99257.00;;;;339044;28;82599;-96
2022/10/24 00:42:33;;;;;;;;;;;21.10;99.90;21.20;99253.00;;;;340662;28;88519;-96
2022/10/24 00:42:45;;;;;;;;;;;21.10;99.90;21.20;99264.00;;;;340994;28;82259;-96
2022/10/24 00:42:57;;;;;;;;;;;21.10;99.90;21.30;99260.00;;;;337902;28;88476;-96
2022/10/24 00:43:19;;;;;;;;;;;21.10;99.90;21.20;99257.00;;;;338143;28;82625;-96
2022/10/24 00:43:30;;;;;;;;;;;21.10;99.90;21.30;99265.00;;;;338868;28;88977;-96
2022/10/24 00:43:42;;;;;;;;;;;21.20;99.90;21.30;99259.00;;;;340850;28;82403;-96
2022/10/24 00:44:22;;;;;;;;;;;21.10;99.90;21.20;99273.00;;;;339026;28;88014;-96
2022/10/24 00:44:37;;;;;;;;;;;21.10;99.90;21.20;99268.00;;;;341856;28;82494;-96
2022/10/24 00:44:51;;;;;;;;;;;21.10;99.90;21.20;99255.00;;;;340465;28;89711;-96
2022/10/24 00:45:47;;;;;;;;;;;21.10;99.90;21.20;99261.00;;;;338693;28;82534;-96
2022/10/24 00:46:00;;;;;;;;;;;21.10;99.90;21.20;99264.00;;;;334989;29;87233;-96
2022/10/24 00:46:14;;;;;;;;;;;21.10;99.90;21.20;99260.00;;;;339156;28;82502;-96
2022/10/24 00:46:26;;;;;;;;;;;21.10;99.90;21.20;99263.00;;;;340347;28;86549;-96
2022/10/24 00:46:42;;;;;;;;;;;21.10;99.90;21.20;99258.00;;;;339740;28;82580;-96
2022/10/24 00:47:04;;;;;;;;;;;21.10;99.90;21.20;99259.00;;;;340035;28;90479;-96
2022/10/24 00:47:18;;;;;;;;;;;21.10;99.90;21.20;99264.00;;;;340944;28;82509;-96
2022/10/24 00:47:31;;;;;;;;;;;21.10;99.90;21.20;99261.00;;;;341716;28;87489;-96
2022/10/24 00:47:43;;;;;;;;;;;21.10;99.90;21.20;99263.00;;;;340447;28;82451;-96
2022/10/24 00:47:55;;;;;;;;;;;21.10;99.90;21.20;99257.00;;;;337589;28;88398;-96
2022/10/24 00:48:24;;;;;;;;;;;21.10;99.90;21.20;99265.00;;;;340164;28;82177;-96
2022/10/24 00:48:46;;;;;;;;;;;21.10;99.90;21.20;99266.00;;;;338802;28;89931;-95
2022/10/24 00:48:58;;;;;;;;;;;21.10;99.90;21.20;99258.00;;;;338896;28;82516;-96
2022/10/24 00:49:16;;;;;;;;;;;21.00;99.90;21.20;99264.00;;;;336330;28;88905;-96
2022/10/24 00:49:48;;;;;;;;;;;21.10;99.90;21.20;99256.00;;;;339489;28;82549;-96
2022/10/24 00:50:08;;;;;;;;;;;21.10;99.90;21.20;99251.00;;;;339747;28;88362;-96
2022/10/24 00:50:21;;;;;;;;;;;21.10;99.90;21.20;99249.00;;;;338302;28;82501;-96
2022/10/24 00:50:33;;;;;;;;;;;21.10;99.90;21.20;99238.00;;;;338043;28;91348;-96
2022/10/24 00:50:45;;;;;;;;;;;21.10;99.90;21.30;99249.00;;;;339528;28;82497;-96
2022/10/24 00:51:02;;;;;;;;;;;21.10;99.90;21.30;99249.00;;;;340264;28;88236;-96
2022/10/24 00:51:29;;;;;;;;;;;21.10;99.90;21.20;99244.00;;;;337143;28;82571;-96
2022/10/24 00:51:41;;;;;;;;;;;21.10;99.90;21.20;99244.00;;;;335039;29;89023;-96
2022/10/24 00:51:56;;;;;;;;;;;21.10;99.90;21.20;99243.00;;;;340627;28;82577;-96
2022/10/24 00:52:08;;;;;;;;;;;21.10;99.90;21.20;99248.00;;;;338195;28;90004;-96
2022/10/24 00:52:25;;;;;;;;;;;21.10;99.90;21.20;99235.00;;;;339973;28;82385;-96
2022/10/24 00:52:44;;;;;;;;;;;21.10;99.90;21.20;99250.00;;;;340235;28;89363;-96
2022/10/24 00:52:56;;;;;;;;;;;21.10;99.90;21.20;99242.00;;;;337875;28;83456;-96
2022/10/24 00:53:08;;;;;;;;;;;21.10;99.90;21.20;99252.00;;;;336534;28;90337;-96
2022/10/24 00:53:21;;;;;;;;;;;21.10;99.90;21.20;99241.00;;;;339312;28;82474;-96
2022/10/24 00:53:49;;;;;;;;;;;21.10;99.90;21.20;99255.00;;;;338184;28;88970;-96
2022/10/24 00:54:04;;;;;;;;;;;21.10;99.90;21.10;99256.00;;;;340088;28;82528;-96
2022/10/24 00:54:16;;;;;;;;;;;21.10;99.90;21.10;99249.00;;;;337898;28;89584;-96
2022/10/24 00:54:28;;;;;;;;;;;21.10;99.90;21.20;99252.00;;;;340425;28;82535;-96
2022/10/24 00:54:40;;;;;;;;;;;21.10;99.90;21.20;99247.00;;;;340708;28;87295;-96
2022/10/24 00:54:54;;;;;;;;;;;21.10;99.90;21.20;99247.00;;;;339417;28;82580;-96
2022/10/24 00:55:08;;;;;;;;;;;21.10;99.90;21.20;99249.00;;;;335865;28;88136;-96
2022/10/24 00:55:20;;;;;;;;;;;21.10;99.90;21.20;99251.00;;;;339821;28;82570;-96
2022/10/24 00:55:34;;;;;;;;;;;21.10;99.90;21.20;99244.00;;;;339297;28;88355;-96
2022/10/24 00:55:49;;;;;;;;;;;21.10;99.90;21.20;99246.00;;;;339321;28;82516;-96
2022/10/24 00:56:01;;;;;;;;;;;21.10;99.90;21.20;99253.00;;;;337733;28;91532;-96
2022/10/24 00:56:13;;;;;;;;;;;21.10;99.90;21.20;99239.00;;;;340917;28;82525;-95
2022/10/24 00:56:28;;;;;;;;;;;21.10;99.90;21.20;99244.00;;;;338129;28;90801;-96
2022/10/24 00:56:57;;;;;;;;;;;21.10;99.90;21.10;99245.00;;;;336677;28;82450;-96
2022/10/24 00:57:16;;;;;;;;;;;21.10;99.90;21.20;99238.00;;;;339977;28;89677;-96
2022/10/24 00:57:52;;;;;;;;;;;21.10;99.90;21.20;99247.00;;;;339829;28;82617;-96
2022/10/24 00:58:05;;;;;;;;;;;21.10;99.90;21.20;99248.00;;;;337012;28;89286;-96
2022/10/24 00:58:22;;;;;;;;;;;21.00;99.90;21.10;99243.00;;;;337194;28;82572;-96
2022/10/24 00:58:34;;;;;;;;;;;21.00;99.90;21.10;99241.00;;;;339103;28;90036;-96
2022/10/24 00:58:46;;;;;;;;;;;21.00;99.90;21.10;99235.00;;;;338397;28;82473;-96
2022/10/24 00:58:58;;;;;;;;;;;21.00;99.90;21.20;99247.00;;;;337715;28;88267;-96
2022/10/24 00:59:10;;;;;;;;;;;21.00;99.90;21.20;99237.00;;;;338136;28;82400;-96
2022/10/24 00:59:29;;;;;;;;;;;21.00;99.90;21.10;99234.00;;;;337782;28;90303;-96
2022/10/24 00:59:42;;;;;;;;;;;21.00;99.90;21.10;99239.00;;;;338396;28;83492;-96
2022/10/24 01:00:00;;;;;;;;;;;21.00;99.90;21.10;99244.00;;;;338971;28;89609;-96
2022/10/24 01:00:23;;;;;;;;;;;21.00;99.90;21.10;99227.00;;;;340795;28;82396;-96
2022/10/24 01:00:35;;;;;;;;;;;21.00;99.90;21.10;99234.00;;;;339834;28;89984;-96
2022/10/24 01:00:47;;;;;;;;;;;21.00;99.90;21.10;99244.00;;;;338086;28;82203;-96
2022/10/24 01:00:59;;;;;;;;;;;21.00;99.90;21.20;99245.00;;;;336269;28;89984;-96
2022/10/24 01:01:11;;;;;;;;;;;21.00;99.90;21.20;99230.00;;;;338741;28;82590;-96
2022/10/24 01:01:24;;;;;;;;;;;21.00;99.90;21.10;99227.00;;;;336374;28;90019;-96
2022/10/24 01:01:36;;;;;;;;;;;21.10;99.90;21.10;99228.00;;;;338021;28;82551;-96
2022/10/24 01:01:48;;;;;;;;;;;21.00;99.90;21.10;99232.00;;;;340511;28;88434;-96
2022/10/24 01:02:00;;;;;;;;;;;21.00;99.90;21.10;99230.00;;;;340856;28;82501;-96
2022/10/24 01:02:12;;;;;;;;;;;21.00;99.90;21.10;99234.00;;;;339408;28;90568;-96
2022/10/24 01:02:25;;;;;;;;;;;21.00;99.90;21.10;99231.00;;;;335708;29;82436;-96
2022/10/24 01:02:38;;;;;;;;;;;21.00;99.90;21.10;99225.00;;;;339395;28;90499;-96
2022/10/24 01:02:50;;;;;;;;;;;21.00;99.90;21.20;99227.00;;;;341570;28;82295;-96
2022/10/24 01:03:02;;;;;;;;;;;21.00;99.90;21.10;99234.00;;;;340488;28;89547;-96
2022/10/24 01:03:20;;;;;;;;;;;21.00;99.90;21.10;99232.00;;;;338862;28;82635;-96
2022/10/24 01:03:47;;;;;;;;;;;21.00;99.90;21.10;99235.00;;;;340238;28;87181;-96
2022/10/24 01:04:00;;;;;;;;;;;21.00;99.90;21.10;99238.00;;;;340159;28;82625;-96
2022/10/24 01:04:12;;;;;;;;;;;21.00;99.90;21.10;99230.00;;;;339358;28;87387;-96
2022/10/24 01:04:24;;;;;;;;;;;21.00;99.90;21.10;99236.00;;;;339368;28;82778;-96
2022/10/24 01:04:40;;;;;;;;;;;21.00;99.90;21.10;99225.00;;;;338491;28;88200;-96
2022/10/24 01:04:54;;;;;;;;;;;21.00;99.90;21.10;99230.00;;;;338701;28;82534;-96
2022/10/24 01:05:06;;;;;;;;;;;21.00;99.90;21.10;99226.00;;;;337611;28;90395;-96
2022/10/24 01:05:20;;;;;;;;;;;21.00;99.90;21.10;99227.00;;;;339990;28;82401;-96
2022/10/24 01:05:39;;;;;;;;;;;21.10;99.90;21.20;99223.00;;;;339162;28;89093;-96
2022/10/24 01:06:11;;;;;;;;;;;21.00;99.90;21.20;99233.00;;;;338348;28;82635;-96
2022/10/24 01:07:14;;;;;;;;;;;21.00;99.90;21.10;99229.00;;;;339129;28;89079;-96
2022/10/24 01:07:48;;;;;;;;;;;21.00;99.90;21.10;99245.00;;;;337085;28;82689;-96
2022/10/24 01:08:08;;;;;;;;;;;21.00;99.90;21.20;99238.00;;;;340036;28;89027;-96
2022/10/24 01:08:34;;;;;;;;;;;21.00;99.90;21.10;99245.00;;;;341165;28;82446;-96
2022/10/24 01:09:39;;;;;;;;;;;21.00;99.90;21.10;99240.00;;;;339992;28;88770;-96
2022/10/24 01:10:36;;;;;;;;;;;21.00;99.90;21.10;99240.00;;;;340224;28;82523;-96
2022/10/24 01:11:07;;;;;;;;;;;21.00;99.90;21.00;99245.00;;;;342441;28;90508;-96
2022/10/24 01:12:22;;;;;;;;;;;21.00;99.90;21.10;99252.00;;;;340560;28;82693;-96
2022/10/24 01:12:55;;;;;;;;;;;21.00;99.90;21.10;99246.00;;;;331947;29;87295;-96
2022/10/24 01:13:58;;;;;;;;;;;21.00;99.90;21.10;99252.00;;;;337447;28;82558;-96
2022/10/24 01:14:48;;;;;;;;;;;21.00;99.90;21.10;99254.00;;;;337764;28;89218;-96
2022/10/24 01:15:23;;;;;;;;;;;21.00;99.90;21.00;99237.00;;;;338349;28;82580;-96
2022/10/24 01:16:07;;;;;;;;;;;21.00;99.90;21.10;99248.00;;;;336075;28;89154;-96
2022/10/24 01:16:54;;;;;;;;;;;20.90;99.90;21.10;99249.00;;;;331902;29;82523;-96
2022/10/24 01:17:32;;;;;;;;;;;21.00;99.90;21.00;99236.00;;;;332850;29;87381;-96
2022/10/24 01:17:56;;;;;;;;;;;20.90;99.90;21.10;99241.00;;;;334023;29;82677;-96
2022/10/24 01:18:19;;;;;;;;;;;20.90;99.90;21.00;99249.00;;;;334789;29;90421;-96
2022/10/24 01:18:55;;;;;;;;;;;21.00;99.90;21.00;99241.00;;;;335869;29;82683;-96
2022/10/24 01:19:44;;;;;;;;;;;20.90;99.90;21.10;99240.00;;;;336867;28;87503;-96